createdAt,value
2022-08-03T00:00:55.012Z,6.50
2022-08-03T00:06:04.772Z,6.80
2022-08-03T00:11:08.031Z,5.80
2022-08-03T00:16:10.958Z,4.70
2022-08-03T00:21:13.666Z,8.00
2022-08-03T00:26:18.718Z,6.00
2022-08-03T00:31:23.098Z,6.00
2022-08-03T00:36:42.797Z,5.20
2022-08-03T00:41:45.465Z,4.80
2022-08-03T00:46:48.209Z,6.00
2022-08-03T00:51:51.311Z,5.20
2022-08-03T00:57:00.034Z,4.70
2022-08-03T01:02:03.259Z,7.60
2022-08-03T01:07:25.917Z,7.00
2022-08-03T01:12:31.713Z,5.60
2022-08-03T01:17:44.587Z,4.70
2022-08-03T01:23:28.985Z,6.60
2022-08-03T01:29:02.435Z,6.50
2022-08-03T01:34:09.309Z,7.50
2022-08-03T01:39:19.339Z,10.20
2022-08-03T01:44:29.786Z,7.30
2022-08-03T01:49:39.655Z,4.90
2022-08-03T01:54:45.664Z,6.30
2022-08-03T01:59:50.998Z,6.10
2022-08-03T02:04:56.999Z,6.30
2022-08-03T02:10:02.927Z,5.60
2022-08-03T02:15:07.288Z,6.40
2022-08-03T02:20:13.606Z,7.10
2022-08-03T02:30:20.771Z,5.30
2022-08-03T02:35:26.517Z,5.40
2022-08-03T02:40:31.555Z,6.50
2022-08-03T02:45:36.825Z,7.00
2022-08-03T02:50:40.554Z,4.80
2022-08-03T02:55:45.989Z,7.70
2022-08-03T03:00:51.968Z,7.30
2022-08-03T03:05:57.659Z,5.90
2022-08-03T03:11:02.032Z,6.80
2022-08-03T03:16:06.467Z,5.50
2022-08-03T03:21:10.390Z,4.80
2022-08-03T03:26:15.466Z,4.90
2022-08-03T03:31:18.223Z,5.20
2022-08-03T03:36:20.955Z,9.00
2022-08-03T03:41:23.820Z,7.10
2022-08-03T03:46:26.803Z,4.40
2022-08-03T03:51:29.599Z,7.70
2022-08-03T03:56:32.999Z,7.20
2022-08-03T04:01:35.771Z,6.60
2022-08-03T04:06:56.992Z,6.10
2022-08-03T04:12:01.875Z,6.90
2022-08-03T04:17:09.418Z,6.00
2022-08-03T04:22:15.130Z,8.20
2022-08-03T04:27:22.510Z,9.70
2022-08-03T04:32:28.831Z,7.30
2022-08-03T04:37:48.179Z,9.10
2022-08-03T04:42:53.741Z,6.30
2022-08-03T04:47:57.770Z,6.20
2022-08-03T04:53:00.677Z,8.30
2022-08-03T04:58:05.127Z,7.00
2022-08-03T05:03:23.720Z,9.00
2022-08-03T05:08:27.826Z,17.90
2022-08-03T05:13:31.334Z,9.50
2022-08-03T05:18:34.186Z,13.70
2022-08-03T05:23:38.016Z,17.20
2022-08-03T05:28:51.373Z,18.00
2022-08-03T05:33:54.892Z,20.60
2022-08-03T05:39:02.452Z,15.40
2022-08-03T05:44:06.073Z,21.30
2022-08-03T05:49:08.845Z,14.30
2022-08-03T05:54:11.941Z,10.80
2022-08-03T05:59:36.962Z,8.40
2022-08-03T06:04:38.166Z,6.50
2022-08-03T06:10:33.627Z,8.50
2022-08-03T06:15:05.433Z,7.60
2022-08-03T06:25:14.255Z,8.10
2022-08-03T06:30:21.059Z,11.00
2022-08-03T06:35:24.592Z,12.60
2022-08-03T06:40:31.381Z,12.20
2022-08-03T06:45:35.487Z,8.80
2022-08-03T06:50:41.577Z,9.80
2022-08-03T06:55:45.341Z,8.00
2022-08-03T07:00:48.180Z,5.00
2022-08-03T07:05:51.397Z,3.60
2022-08-03T07:10:54.612Z,4.50
2022-08-03T07:15:57.461Z,4.30
2022-08-03T07:21:00.150Z,4.10
2022-08-03T07:26:03.065Z,5.10
2022-08-03T07:31:05.772Z,9.60
2022-08-03T07:36:08.481Z,9.50
2022-08-03T07:41:11.672Z,6.40
2022-08-03T07:46:15.162Z,7.10
2022-08-03T07:51:17.884Z,6.20
2022-08-03T07:56:21.447Z,5.00
2022-08-03T08:01:24.316Z,5.30
2022-08-03T08:06:27.173Z,5.30
2022-08-03T08:11:29.929Z,6.10
2022-08-03T08:16:34.313Z,6.40
2022-08-03T08:21:53.982Z,4.90
2022-08-03T08:27:01.507Z,3.60
2022-08-03T08:32:04.937Z,5.20
2022-08-03T08:37:08.011Z,5.10
2022-08-03T08:42:10.718Z,4.70
2022-08-03T08:47:14.871Z,3.60
2022-08-03T08:52:29.478Z,3.40
2022-08-03T08:57:43.102Z,4.60
2022-08-03T09:02:47.092Z,2.80
2022-08-03T09:07:50.283Z,3.90
2022-08-03T09:12:53.311Z,3.30
2022-08-03T09:17:58.106Z,4.00
2022-08-03T09:23:24.691Z,3.10
2022-08-03T09:28:59.916Z,3.30
2022-08-03T09:34:01.240Z,4.40
2022-08-03T09:39:06.570Z,3.00
2022-08-03T09:44:24.472Z,2.90
2022-08-03T09:49:28.650Z,5.30
2022-08-03T09:54:32.527Z,6.20
2022-08-03T09:59:35.436Z,6.70
2022-08-03T10:04:48.732Z,3.40
2022-08-03T10:10:31.302Z,8.80
2022-08-03T10:16:23.840Z,4.10
2022-08-03T10:20:54.658Z,5.40
2022-08-03T10:26:01.975Z,4.60
2022-08-03T10:31:07.940Z,4.00
2022-08-03T10:36:13.577Z,5.50
2022-08-03T10:41:20.027Z,5.10
2022-08-03T10:46:23.001Z,5.90
2022-08-03T10:51:30.617Z,4.10
2022-08-03T10:56:51.783Z,4.40
2022-08-03T11:02:00.121Z,4.50
2022-08-03T11:07:15.932Z,3.60
2022-08-03T11:12:30.608Z,3.60
2022-08-03T11:17:46.117Z,8.80
2022-08-03T11:23:01.156Z,3.90
2022-08-03T11:33:31.939Z,3.80
2022-08-03T11:38:34.673Z,5.50
2022-08-03T11:43:37.737Z,3.90
2022-08-03T11:48:45.513Z,4.70
2022-08-03T11:53:53.077Z,3.00
2022-08-03T11:59:18.194Z,3.30
2022-08-03T12:04:21.065Z,5.60
2022-08-03T12:09:23.839Z,3.50
2022-08-03T12:14:49.019Z,5.30
2022-08-03T12:19:51.274Z,5.00
2022-08-03T12:24:54.302Z,4.30
2022-08-03T12:29:59.378Z,5.60
2022-08-03T12:35:04.628Z,2.60
2022-08-03T12:40:13.219Z,3.00
2022-08-03T12:45:20.295Z,4.90
2022-08-03T12:50:35.851Z,4.10
2022-08-03T12:55:56.994Z,3.40
2022-08-03T13:01:09.152Z,4.80
2022-08-03T13:06:17.678Z,4.20
2022-08-03T13:11:22.819Z,4.10
2022-08-03T13:16:45.501Z,3.60
2022-08-03T13:22:03.228Z,3.20
2022-08-03T13:28:01.661Z,3.70
2022-08-03T13:32:31.445Z,3.90
2022-08-03T13:37:34.335Z,2.50
2022-08-03T13:42:38.994Z,4.20
2022-08-03T13:47:42.081Z,2.80
2022-08-03T13:52:46.483Z,3.70
2022-08-03T13:58:11.466Z,4.20
2022-08-03T14:03:14.516Z,5.00
2022-08-03T14:08:18.578Z,5.40
2022-08-03T14:13:21.543Z,5.40
2022-08-03T14:18:28.872Z,4.30
2022-08-03T14:23:40.028Z,4.90
2022-08-03T14:28:42.721Z,4.50
2022-08-03T14:33:45.485Z,4.90
2022-08-03T14:38:48.335Z,4.50
2022-08-03T14:44:00.519Z,3.90
2022-08-03T14:50:38.377Z,3.60
2022-08-03T14:54:31.145Z,4.00
2022-08-03T14:59:55.666Z,3.20
2022-08-03T15:04:56.990Z,3.80
2022-08-03T15:09:59.716Z,3.50
2022-08-03T15:15:06.132Z,4.00
2022-08-03T15:20:25.505Z,3.20
2022-08-03T15:26:04.113Z,3.30
2022-08-03T15:30:56.319Z,4.20
2022-08-03T15:36:00.397Z,2.70
2022-08-03T15:41:03.203Z,4.90
2022-08-03T15:46:28.822Z,4.60
2022-08-03T15:51:28.946Z,5.40
2022-08-03T15:56:31.663Z,4.00
2022-08-03T16:01:34.877Z,5.70
2022-08-03T16:06:37.941Z,4.80
2022-08-03T16:11:40.646Z,4.20
2022-08-03T16:16:43.590Z,5.80
2022-08-03T16:21:48.250Z,4.70
2022-08-03T16:26:51.760Z,4.30
2022-08-03T16:31:54.459Z,6.00
2022-08-03T16:36:57.231Z,4.10
2022-08-03T16:42:01.717Z,6.50
2022-08-03T16:47:04.838Z,4.90
2022-08-03T16:52:07.700Z,6.40
2022-08-03T16:57:10.412Z,4.60
2022-08-03T17:02:27.268Z,5.10
2022-08-03T17:07:30.369Z,7.10
2022-08-03T17:12:33.347Z,4.90
2022-08-03T17:23:34.694Z,4.40
2022-08-03T17:28:50.115Z,4.00
2022-08-03T17:34:01.352Z,4.00
2022-08-03T17:39:06.476Z,5.00
2022-08-03T17:44:15.687Z,6.40
2022-08-03T17:49:24.678Z,3.60
2022-08-03T17:55:51.521Z,4.00
2022-08-03T18:00:29.806Z,6.80
2022-08-03T18:06:11.466Z,4.70
2022-08-03T18:11:14.282Z,8.10
2022-08-03T18:16:24.804Z,7.40
2022-08-03T18:22:02.733Z,5.20
2022-08-03T18:26:53.576Z,4.50
2022-08-03T18:32:04.265Z,7.20
2022-08-03T18:37:12.242Z,7.30
2022-08-03T18:42:25.761Z,5.20
2022-08-03T18:47:50.969Z,6.30
2022-08-03T18:52:55.431Z,4.00
2022-08-03T18:58:19.824Z,7.40
2022-08-03T19:03:24.819Z,5.50
2022-08-03T19:08:33.401Z,8.80
2022-08-03T19:19:14.372Z,22.00
2022-08-03T19:24:23.322Z,39.60
2022-08-03T19:29:33.338Z,32.10
2022-08-03T19:40:00.653Z,23.80
2022-08-03T19:45:11.303Z,19.30
2022-08-03T19:50:20.035Z,15.80
2022-08-03T19:55:23.808Z,23.10
2022-08-03T20:00:36.769Z,16.90
2022-08-03T20:05:51.901Z,18.20
2022-08-03T20:10:55.550Z,14.60
2022-08-03T20:15:58.388Z,13.80
2022-08-03T20:21:14.800Z,12.20
2022-08-03T20:26:20.357Z,11.90
2022-08-03T20:31:32.216Z,8.10
2022-08-03T20:36:39.108Z,12.70
2022-08-03T20:41:42.017Z,8.30
2022-08-03T20:46:53.169Z,7.90
2022-08-03T20:52:03.540Z,9.80
2022-08-03T20:57:09.577Z,7.00
2022-08-03T21:02:13.341Z,10.10
2022-08-03T21:07:24.434Z,6.90
2022-08-03T21:13:08.943Z,19.60
2022-08-03T21:13:19.059Z,6.70
2022-08-03T21:18:23.486Z,7.30
2022-08-03T21:23:39.981Z,7.50
2022-08-03T21:28:52.857Z,8.40
2022-08-03T21:34:04.147Z,8.70
2022-08-03T21:39:09.023Z,7.60
2022-08-03T21:44:11.961Z,6.10
2022-08-03T21:50:05.555Z,8.70
2022-08-03T21:54:42.174Z,6.60
2022-08-03T21:59:52.977Z,6.80
2022-08-03T22:04:57.297Z,5.70
2022-08-03T22:10:02.894Z,6.80
2022-08-03T22:15:08.849Z,7.30
2022-08-03T22:25:17.557Z,7.80
2022-08-03T22:30:20.585Z,6.70
2022-08-03T22:35:26.054Z,7.80
2022-08-03T22:40:29.079Z,6.50
2022-08-03T22:46:06.014Z,8.40
2022-08-03T22:50:56.679Z,7.50
2022-08-03T22:55:59.683Z,9.40
2022-08-03T23:01:06.016Z,7.40
2022-08-03T23:06:09.332Z,7.50
2022-08-03T23:11:12.960Z,7.80
2022-08-03T23:16:29.299Z,8.80
2022-08-03T23:21:53.551Z,7.50
2022-08-03T23:26:56.686Z,9.70
2022-08-03T23:32:02.295Z,8.80
2022-08-03T23:37:05.833Z,7.10
2022-08-03T23:42:10.002Z,9.20
2022-08-03T23:47:14.036Z,6.60
2022-08-03T23:52:29.321Z,8.30
2022-08-03T23:57:52.401Z,8.50
